createdAt,value
2019-02-23T00:04:28.173Z,5.85
2019-02-23T00:09:20.063Z,5.78
2019-02-23T00:14:09.943Z,5.69
2019-02-23T00:23:13.274Z,5.61
2019-02-23T00:28:03.220Z,5.46
2019-02-23T00:32:53.074Z,5.37
2019-02-23T00:37:43.013Z,5.37
2019-02-23T00:42:32.873Z,5.39
2019-02-23T00:47:22.801Z,5.35
2019-02-23T00:52:12.571Z,5.39
2019-02-23T00:57:02.433Z,5.40
2019-02-23T01:01:52.272Z,5.40
2019-02-23T01:06:42.137Z,5.40
2019-02-23T01:11:31.988Z,5.30
2019-02-23T01:16:21.832Z,5.27
2019-02-23T01:21:11.688Z,5.28
2019-02-23T01:26:01.544Z,5.31
2019-02-23T01:30:51.388Z,5.33
2019-02-23T01:35:41.240Z,5.35
2019-02-23T01:40:31.206Z,5.46
2019-02-23T01:45:21.135Z,5.54
2019-02-23T01:50:11.100Z,5.48
2019-02-23T01:55:01.017Z,5.43
2019-02-23T01:59:50.857Z,5.52
2019-02-23T02:04:40.711Z,5.52
2019-02-23T02:09:33.940Z,5.56
2019-02-23T02:14:24.428Z,5.49
2019-02-23T02:19:14.256Z,5.61
2019-02-23T02:24:04.148Z,5.45
2019-02-23T02:28:54.003Z,5.33
2019-02-23T02:34:13.463Z,5.16
2019-02-23T02:39:07.124Z,5.06
2019-02-23T02:43:56.970Z,4.99
2019-02-23T02:48:46.820Z,4.92
2019-02-23T02:53:36.672Z,4.79
2019-02-23T02:58:26.520Z,4.67
2019-02-23T03:03:16.380Z,4.63
2019-02-23T03:08:06.238Z,4.66
2019-02-23T03:12:56.047Z,4.68
2019-02-23T03:17:46.011Z,4.68
2019-02-23T03:22:35.860Z,4.69
2019-02-23T03:27:25.714Z,4.65
2019-02-23T03:32:15.568Z,4.65
2019-02-23T03:37:05.404Z,4.68
2019-02-23T03:41:55.654Z,4.71
2019-02-23T03:46:45.525Z,4.69
2019-02-23T03:51:35.354Z,4.68
2019-02-23T03:56:25.205Z,4.68
2019-02-23T04:01:15.039Z,4.69
2019-02-23T04:06:04.903Z,4.65
2019-02-23T04:10:54.750Z,4.62
2019-02-23T04:15:44.608Z,4.54
2019-02-23T04:20:34.424Z,4.46
2019-02-23T04:25:24.303Z,4.44
2019-02-23T04:30:14.204Z,4.41
2019-02-23T04:35:04.120Z,4.36
2019-02-23T04:39:53.975Z,4.30
2019-02-23T04:44:43.816Z,4.26
2019-02-23T04:49:33.677Z,4.21
2019-02-23T04:54:23.512Z,4.13
2019-02-23T04:59:13.347Z,4.19
2019-02-23T05:04:03.188Z,4.38
2019-02-23T05:08:53.023Z,4.61
2019-02-23T05:13:42.973Z,4.89
2019-02-23T05:18:32.810Z,4.80
2019-02-23T05:23:22.817Z,4.76
2019-02-23T05:28:12.655Z,4.58
2019-02-23T05:33:02.521Z,4.57
2019-02-23T05:37:52.457Z,4.64
2019-02-23T05:42:42.305Z,4.78
2019-02-23T05:47:32.123Z,4.97
2019-02-23T05:52:21.967Z,5.11
2019-02-23T05:57:11.807Z,5.14
2019-02-23T06:02:01.664Z,5.18
2019-02-23T06:06:51.531Z,5.23
2019-02-23T06:11:41.384Z,5.17
2019-02-23T06:16:31.234Z,5.24
2019-02-23T06:21:21.097Z,5.20
2019-02-23T06:26:10.969Z,5.04
2019-02-23T06:31:00.818Z,4.98
2019-02-23T06:35:50.691Z,4.69
2019-02-23T06:40:40.703Z,4.42
2019-02-23T06:45:30.642Z,4.34
2019-02-23T06:50:20.479Z,4.25
2019-02-23T06:55:10.316Z,4.19
2019-02-23T07:00:00.141Z,4.16
2019-02-23T07:04:52.889Z,4.15
2019-02-23T07:09:42.752Z,4.15
2019-02-23T07:14:32.605Z,4.19
2019-02-23T07:19:22.461Z,4.22
2019-02-23T07:24:12.338Z,4.28
2019-02-23T07:29:02.180Z,4.32
2019-02-23T07:33:52.052Z,4.40
2019-02-23T07:38:41.919Z,4.38
2019-02-23T07:43:31.764Z,4.51
2019-02-23T07:48:21.627Z,4.62
2019-02-23T07:53:11.487Z,4.71
2019-02-23T07:58:01.358Z,4.84
2019-02-23T08:02:51.226Z,4.98
2019-02-23T08:07:41.125Z,5.01
2019-02-23T08:12:30.968Z,5.12
2019-02-23T08:17:20.921Z,5.00
2019-02-23T08:22:10.817Z,5.08
2019-02-23T08:27:00.735Z,5.13
2019-02-23T08:31:50.608Z,5.21
2019-02-23T08:36:40.453Z,5.44
2019-02-23T08:41:30.302Z,5.49
2019-02-23T08:46:20.173Z,5.79
2019-02-23T08:51:10.136Z,6.02
2019-02-23T08:55:59.969Z,6.00
2019-02-23T09:00:49.813Z,6.29
2019-02-23T09:05:40.031Z,6.33
2019-02-23T09:10:29.990Z,6.57
2019-02-23T09:15:22.289Z,6.82
2019-02-23T09:20:12.822Z,6.79
2019-02-23T09:25:05.224Z,6.76
2019-02-23T09:29:55.065Z,7.12
2019-02-23T09:34:45.009Z,7.25
2019-02-23T09:39:34.862Z,7.49
2019-02-23T09:44:24.694Z,7.77
2019-02-23T09:49:14.555Z,8.03
2019-02-23T09:54:04.529Z,8.03
2019-02-23T09:58:54.406Z,8.48
2019-02-23T10:03:44.255Z,8.75
2019-02-23T10:08:35.438Z,9.39
2019-02-23T10:13:25.309Z,10.08
2019-02-23T10:21:39.816Z,11.28
2019-02-23T10:26:33.731Z,12.70
2019-02-23T10:31:27.708Z,14.64
2019-02-23T10:36:22.171Z,17.00
2019-02-23T10:41:16.141Z,17.65
2019-02-23T10:46:10.183Z,17.77
2019-02-23T10:51:04.163Z,19.03
2019-02-23T10:55:58.039Z,19.70
2019-02-23T11:00:51.871Z,21.90
2019-02-23T11:05:45.813Z,22.12
2019-02-23T11:10:39.795Z,21.85
2019-02-23T11:15:33.787Z,23.56
2019-02-23T11:20:28.416Z,23.77
2019-02-23T11:25:24.248Z,22.55
2019-02-23T11:30:18.194Z,22.85
2019-02-23T11:35:16.998Z,22.85
2019-02-23T11:40:11.241Z,23.57
2019-02-23T11:45:06.921Z,22.26
2019-02-23T11:50:00.887Z,22.43
2019-02-23T11:54:54.741Z,23.38
2019-02-23T11:59:48.698Z,25.26
2019-02-23T12:04:42.611Z,25.53
2019-02-23T12:09:36.470Z,27.77
2019-02-23T12:14:30.341Z,29.38
2019-02-23T12:19:24.473Z,31.42
2019-02-23T12:24:18.510Z,29.19
2019-02-23T12:29:12.369Z,31.38
2019-02-23T12:34:06.339Z,30.55
2019-02-23T12:39:00.183Z,24.61
2019-02-23T12:43:54.064Z,25.84
2019-02-23T12:48:47.934Z,24.97
2019-02-23T12:53:41.785Z,26.32
2019-02-23T12:58:35.662Z,27.36
2019-02-23T13:03:29.550Z,27.88
2019-02-23T13:08:27.210Z,26.62
2019-02-23T13:13:34.038Z,29.88
2019-02-23T13:18:34.798Z,31.68
2019-02-23T13:23:35.271Z,34.06
2019-02-23T13:28:41.635Z,32.40
2019-02-23T13:34:12.884Z,33.30
2019-02-23T13:39:16.789Z,31.58
2019-02-23T13:44:30.799Z,31.23
2019-02-23T13:49:49.246Z,33.12
2019-02-23T13:55:17.815Z,31.69
2019-02-23T14:00:47.556Z,32.23
2019-02-23T14:05:45.248Z,28.98
2019-02-23T14:10:42.906Z,31.05
2019-02-23T14:15:46.782Z,33.36
2019-02-23T14:20:58.991Z,34.57
2019-02-23T14:26:08.863Z,35.21
2019-02-23T14:31:06.522Z,35.18
2019-02-23T14:36:09.826Z,37.98
2019-02-23T14:41:13.550Z,33.74
2019-02-23T14:46:27.856Z,37.50
2019-02-23T14:51:40.659Z,37.61
2019-02-23T14:56:57.604Z,38.62
2019-02-23T15:02:10.551Z,38.22
2019-02-23T15:07:17.266Z,37.44
2019-02-23T15:12:20.929Z,35.53
2019-02-23T15:17:24.415Z,35.60
2019-02-23T15:22:48.698Z,34.75
2019-02-23T15:27:49.175Z,33.39
2019-02-23T15:33:12.989Z,33.31
2019-02-23T15:38:19.890Z,24.68
2019-02-23T15:43:23.603Z,19.92
2019-02-23T15:48:30.445Z,18.96
2019-02-23T15:53:24.275Z,19.16
2019-02-23T15:58:18.534Z,17.31
2019-02-23T16:03:12.390Z,16.86
2019-02-23T16:08:06.250Z,16.61
2019-02-23T16:13:00.141Z,15.90
2019-02-23T16:17:54.070Z,15.29
2019-02-23T16:22:48.086Z,14.57
2019-02-23T16:27:41.970Z,14.13
2019-02-23T16:32:35.859Z,13.55
2019-02-23T16:37:29.717Z,13.01
2019-02-23T16:42:23.606Z,12.65
2019-02-23T16:47:17.566Z,12.32
2019-02-23T16:52:11.408Z,11.97
2019-02-23T16:57:05.268Z,11.65
2019-02-23T17:01:59.155Z,11.26
2019-02-23T17:06:53.009Z,10.98
2019-02-23T17:11:46.836Z,10.71
2019-02-23T17:16:40.688Z,10.43
2019-02-23T17:21:34.574Z,10.14
2019-02-23T17:26:28.508Z,9.90
2019-02-23T17:31:22.400Z,9.62
2019-02-23T17:36:16.660Z,9.48
2019-02-23T17:42:53.475Z,9.30
2019-02-23T17:46:07.336Z,9.14
2019-02-23T17:49:21.179Z,9.15
2019-02-23T17:52:35.041Z,8.96
2019-02-23T17:55:49.148Z,8.74
2019-02-23T17:59:03.133Z,8.51
2019-02-23T18:02:16.966Z,8.31
2019-02-23T18:05:30.936Z,8.28
2019-02-23T18:08:44.788Z,8.16
2019-02-23T18:11:58.674Z,8.13
2019-02-23T18:15:12.643Z,8.10
2019-02-23T18:18:26.530Z,7.98
2019-02-23T18:21:40.425Z,7.94
2019-02-23T18:24:54.561Z,7.83
2019-02-23T18:28:08.459Z,7.73
2019-02-23T18:31:22.369Z,7.60
2019-02-23T18:34:36.210Z,7.64
2019-02-23T18:37:50.181Z,7.55
2019-02-23T18:41:04.038Z,7.46
2019-02-23T18:44:21.183Z,7.37
2019-02-23T18:47:35.061Z,7.29
2019-02-23T18:50:54.034Z,7.29
2019-02-23T18:54:10.480Z,7.26
2019-02-23T18:57:24.327Z,7.16
2019-02-23T19:00:38.184Z,7.09
2019-02-23T19:03:52.066Z,6.99
2019-02-23T19:07:06.012Z,6.92
2019-02-23T19:10:19.852Z,6.87
2019-02-23T19:13:33.723Z,6.82
2019-02-23T19:16:47.621Z,6.78
2019-02-23T19:20:02.850Z,6.69
2019-02-23T19:23:16.698Z,6.68
2019-02-23T19:26:38.072Z,6.67
2019-02-23T19:29:46.594Z,6.60
2019-02-23T19:33:00.561Z,6.57
2019-02-23T19:36:14.495Z,6.55
2019-02-23T19:39:28.349Z,6.50
2019-02-23T19:42:42.214Z,6.44
2019-02-23T19:45:56.177Z,6.44
2019-02-23T19:49:10.057Z,6.40
2019-02-23T19:52:24.134Z,6.30
2019-02-23T19:55:37.999Z,6.26
2019-02-23T19:58:51.858Z,6.29
2019-02-23T20:02:05.704Z,6.25
2019-02-23T20:05:19.554Z,6.25
2019-02-23T20:08:33.428Z,6.15
2019-02-23T20:11:47.381Z,6.15
2019-02-23T20:15:01.500Z,6.22
2019-02-23T20:18:15.348Z,6.15
2019-02-23T20:21:29.440Z,6.21
2019-02-23T20:24:43.377Z,6.15
2019-02-23T20:27:57.218Z,6.19
2019-02-23T20:31:11.448Z,6.07
2019-02-23T20:34:25.368Z,6.03
2019-02-23T20:37:39.215Z,6.03
2019-02-23T20:40:53.238Z,5.99
2019-02-23T20:44:07.087Z,5.95
2019-02-23T20:47:21.049Z,5.83
2019-02-23T20:50:34.905Z,5.81
2019-02-23T20:53:48.754Z,5.75
2019-02-23T20:57:05.250Z,5.77
2019-02-23T21:00:19.128Z,5.77
2019-02-23T21:03:32.968Z,5.69
2019-02-23T21:06:48.883Z,5.64
2019-02-23T21:10:08.371Z,5.77
2019-02-23T21:13:22.223Z,5.62
2019-02-23T21:16:36.095Z,5.50
2019-02-23T21:19:50.028Z,5.43
2019-02-23T21:23:04.031Z,5.33
2019-02-23T21:26:18.040Z,5.33
2019-02-23T21:29:31.890Z,5.31
2019-02-23T21:32:45.776Z,5.22
2019-02-23T21:35:59.656Z,5.23
2019-02-23T21:39:13.499Z,5.23
2019-02-23T21:42:27.354Z,5.15
2019-02-23T21:45:41.221Z,5.11
2019-02-23T21:48:55.403Z,5.06
2019-02-23T21:52:09.282Z,5.03
2019-02-23T21:55:23.105Z,5.00
2019-02-23T21:58:36.985Z,5.04
2019-02-23T22:01:50.973Z,5.02
2019-02-23T22:05:11.922Z,5.02
2019-02-23T22:08:21.311Z,4.97
2019-02-23T22:11:35.128Z,4.95
2019-02-23T22:14:48.995Z,4.92
2019-02-23T22:18:02.980Z,4.88
2019-02-23T22:21:16.795Z,4.85
2019-02-23T22:24:30.685Z,4.78
2019-02-23T22:27:44.734Z,4.70
2019-02-23T22:30:58.575Z,4.70
2019-02-23T22:34:12.419Z,4.69
2019-02-23T22:37:26.253Z,4.66
2019-02-23T22:40:40.216Z,4.62
2019-02-23T22:43:54.115Z,4.66
2019-02-23T22:47:07.967Z,4.69
2019-02-23T22:50:21.947Z,4.62
2019-02-23T22:53:35.793Z,4.51
2019-02-23T22:56:49.619Z,4.44
2019-02-23T23:00:07.722Z,4.42
2019-02-23T23:03:22.182Z,4.40
2019-02-23T23:06:36.081Z,4.31
2019-02-23T23:09:50.067Z,4.35
2019-02-23T23:13:04.015Z,4.34
2019-02-23T23:16:17.871Z,4.27
2019-02-23T23:19:31.752Z,4.25
2019-02-23T23:22:45.690Z,4.24
2019-02-23T23:25:59.564Z,4.20
2019-02-23T23:29:13.537Z,4.13
2019-02-23T23:32:27.401Z,4.07
2019-02-23T23:35:41.263Z,4.09
2019-02-23T23:38:55.182Z,4.09
2019-02-23T23:42:09.128Z,4.15
2019-02-23T23:45:23.144Z,4.14
2019-02-23T23:48:37.085Z,4.16
2019-02-23T23:51:51.010Z,4.19
2019-02-23T23:55:05.176Z,4.27
2019-02-23T23:58:19.012Z,4.29
